createdAt,value
2022-12-31T00:02:24.143Z,1.70
2022-12-31T00:04:55.497Z,0.60
2022-12-31T00:07:26.126Z,1.40
2022-12-31T00:09:56.983Z,0.90
2022-12-31T00:12:27.796Z,1.50
2022-12-31T00:14:58.553Z,1.00
2022-12-31T00:17:29.294Z,1.10
2022-12-31T00:20:00.063Z,1.50
2022-12-31T00:22:30.813Z,0.70
2022-12-31T00:25:01.579Z,1.10
2022-12-31T00:27:34.489Z,1.40
2022-12-31T00:30:05.699Z,1.50
2022-12-31T00:32:36.365Z,0.90
2022-12-31T00:35:08.779Z,0.80
2022-12-31T00:37:39.478Z,1.60
2022-12-31T00:40:12.838Z,0.70
2022-12-31T00:42:43.403Z,1.50
2022-12-31T00:45:14.594Z,1.20
2022-12-31T00:47:45.362Z,1.30
2022-12-31T00:50:16.160Z,1.30
2022-12-31T00:52:46.692Z,1.40
2022-12-31T00:55:17.678Z,1.10
2022-12-31T00:57:48.660Z,1.60
2022-12-31T01:00:20.444Z,1.70
2022-12-31T01:02:51.207Z,0.90
2022-12-31T01:05:22.053Z,1.40
2022-12-31T01:07:52.933Z,1.60
2022-12-31T01:10:37.545Z,2.60
2022-12-31T01:13:08.584Z,2.30
2022-12-31T01:15:40.777Z,3.80
2022-12-31T01:18:11.993Z,2.40
2022-12-31T01:20:44.940Z,1.70
2022-12-31T01:23:15.520Z,1.60
2022-12-31T01:25:46.196Z,1.90
2022-12-31T01:28:16.767Z,2.10
2022-12-31T01:30:47.918Z,1.90
2022-12-31T01:33:18.644Z,1.50
2022-12-31T01:35:49.598Z,2.80
2022-12-31T01:38:20.474Z,1.90
2022-12-31T01:40:51.187Z,1.40
2022-12-31T01:43:22.652Z,2.50
2022-12-31T01:45:55.954Z,2.10
2022-12-31T01:48:29.178Z,1.10
2022-12-31T01:51:00.943Z,1.20
2022-12-31T01:53:32.078Z,1.80
2022-12-31T01:56:04.350Z,2.10
2022-12-31T01:58:40.866Z,1.90
2022-12-31T02:01:15.377Z,1.80
2022-12-31T02:03:46.281Z,1.70
2022-12-31T02:06:21.586Z,2.20
2022-12-31T02:08:52.281Z,1.70
2022-12-31T02:11:27.351Z,3.20
2022-12-31T02:14:01.481Z,1.90
2022-12-31T02:16:42.120Z,1.50
2022-12-31T02:19:50.258Z,2.60
2022-12-31T02:22:31.050Z,2.10
2022-12-31T02:25:25.839Z,1.60
2022-12-31T02:28:14.718Z,1.10
2022-12-31T02:30:50.009Z,2.30
2022-12-31T02:33:29.676Z,1.50
2022-12-31T02:36:03.915Z,2.60
2022-12-31T02:38:38.947Z,1.60
2022-12-31T02:41:35.973Z,2.70
2022-12-31T02:44:24.824Z,1.20
2022-12-31T02:47:08.608Z,3.40
2022-12-31T02:49:52.004Z,1.60
2022-12-31T02:52:30.516Z,1.40
2022-12-31T02:55:10.280Z,1.80
2022-12-31T02:57:47.194Z,3.30
2022-12-31T03:00:36.669Z,3.30
2022-12-31T03:03:09.276Z,4.40
2022-12-31T03:08:12.045Z,2.00
2022-12-31T03:10:42.801Z,2.60
2022-12-31T03:13:13.536Z,4.10
2022-12-31T03:15:44.405Z,2.70
2022-12-31T03:18:16.942Z,1.70
2022-12-31T03:21:07.495Z,1.90
2022-12-31T03:23:40.998Z,1.40
2022-12-31T03:26:13.331Z,1.60
2022-12-31T03:28:47.830Z,1.50
2022-12-31T03:31:18.772Z,1.70
2022-12-31T03:33:49.497Z,1.00
2022-12-31T03:36:20.680Z,1.70
2022-12-31T03:38:52.966Z,1.30
2022-12-31T03:41:23.862Z,0.90
2022-12-31T03:43:54.614Z,1.80
2022-12-31T03:46:25.200Z,1.60
2022-12-31T03:48:55.837Z,1.00
2022-12-31T03:51:26.394Z,0.80
2022-12-31T03:53:56.984Z,0.90
2022-12-31T03:56:27.613Z,1.00
2022-12-31T03:58:58.415Z,2.40
2022-12-31T04:01:29.110Z,1.10
2022-12-31T04:03:59.996Z,1.40
2022-12-31T04:06:30.611Z,1.50
2022-12-31T04:09:01.345Z,0.90
2022-12-31T04:11:31.965Z,0.80
2022-12-31T04:14:02.796Z,0.90
2022-12-31T04:16:33.462Z,1.20
2022-12-31T04:19:04.838Z,2.20
2022-12-31T04:21:35.513Z,0.90
2022-12-31T04:24:07.279Z,0.80
2022-12-31T04:26:38.377Z,1.50
2022-12-31T04:29:09.423Z,2.50
2022-12-31T04:31:40.428Z,0.80
2022-12-31T04:34:11.132Z,1.40
2022-12-31T04:36:42.029Z,1.40
2022-12-31T04:39:12.651Z,0.80
2022-12-31T04:41:43.319Z,0.60
2022-12-31T04:44:14.305Z,1.00
2022-12-31T04:46:45.077Z,1.00
2022-12-31T04:49:16.013Z,1.20
2022-12-31T04:51:46.697Z,0.50
2022-12-31T04:54:17.258Z,1.30
2022-12-31T04:56:47.966Z,0.30
2022-12-31T04:59:18.543Z,1.40
2022-12-31T05:01:49.324Z,1.20
2022-12-31T05:04:20.123Z,0.70
2022-12-31T05:06:50.843Z,1.90
2022-12-31T05:09:21.781Z,0.50
2022-12-31T05:11:52.381Z,1.40
2022-12-31T05:14:23.390Z,1.50
2022-12-31T05:16:54.055Z,0.70
2022-12-31T05:19:24.796Z,0.60
2022-12-31T05:22:09.322Z,0.50
2022-12-31T05:24:39.981Z,0.50
2022-12-31T05:27:10.702Z,0.80
2022-12-31T05:29:41.353Z,2.30
2022-12-31T05:32:11.966Z,1.60
2022-12-31T05:34:42.735Z,0.50
2022-12-31T05:37:13.477Z,0.60
2022-12-31T05:39:44.172Z,0.30
2022-12-31T05:42:14.823Z,0.50
2022-12-31T05:44:45.500Z,0.90
2022-12-31T05:47:16.629Z,0.50
2022-12-31T05:49:47.257Z,0.30
2022-12-31T05:52:18.327Z,0.50
2022-12-31T05:54:48.925Z,0.20
2022-12-31T05:57:19.636Z,0.70
2022-12-31T05:59:50.474Z,0.30
2022-12-31T06:02:21.161Z,0.30
2022-12-31T06:04:51.864Z,0.40
2022-12-31T06:07:22.706Z,1.30
2022-12-31T06:09:53.407Z,0.10
2022-12-31T06:12:24.000Z,20.10
2022-12-31T06:14:54.876Z,1.50
2022-12-31T06:17:25.736Z,0.20
2022-12-31T06:19:56.775Z,0.70
2022-12-31T06:22:27.731Z,0.80
2022-12-31T06:24:58.434Z,0.20
2022-12-31T06:27:29.030Z,0.70
2022-12-31T06:29:59.741Z,0.40
2022-12-31T06:32:30.403Z,0.40
2022-12-31T06:35:01.104Z,1.20
2022-12-31T06:37:31.755Z,0.20
2022-12-31T06:40:03.745Z,1.20
2022-12-31T06:42:34.377Z,0.20
2022-12-31T06:45:05.583Z,0.10
2022-12-31T06:47:36.191Z,0.10
2022-12-31T06:50:08.490Z,0.60
2022-12-31T06:52:39.339Z,0.40
2022-12-31T06:55:13.801Z,0.40
2022-12-31T06:57:45.967Z,0.20
2022-12-31T07:00:19.321Z,0.30
2022-12-31T07:03:20.483Z,0.60
2022-12-31T07:05:55.092Z,0.90
2022-12-31T07:08:43.085Z,0.30
2022-12-31T07:11:21.468Z,0.70
2022-12-31T07:14:06.193Z,0.60
2022-12-31T07:16:53.493Z,0.70
2022-12-31T07:19:36.617Z,1.10
2022-12-31T07:22:13.231Z,0.30
2022-12-31T07:24:45.471Z,3.40
2022-12-31T07:27:34.184Z,1.80
2022-12-31T07:30:11.280Z,0.20
2022-12-31T07:33:00.998Z,0.70
2022-12-31T07:35:38.361Z,1.50
2022-12-31T07:38:18.721Z,0.70
2022-12-31T07:41:07.260Z,0.90
2022-12-31T07:43:49.696Z,1.00
2022-12-31T07:46:28.649Z,0.60
2022-12-31T07:49:01.084Z,1.00
2022-12-31T07:51:33.058Z,0.50
2022-12-31T07:54:07.485Z,1.80
2022-12-31T07:56:41.008Z,0.70
2022-12-31T07:59:24.410Z,0.70
2022-12-31T08:02:02.945Z,5.30
2022-12-31T08:04:44.099Z,0.80
2022-12-31T08:07:23.862Z,1.90
2022-12-31T08:10:04.205Z,0.90
2022-12-31T08:12:37.037Z,0.80
2022-12-31T08:15:15.757Z,0.40
2022-12-31T08:17:47.576Z,0.10
2022-12-31T08:20:19.679Z,0.30
2022-12-31T08:23:08.104Z,0.50
2022-12-31T08:26:00.093Z,0.50
2022-12-31T08:28:45.783Z,0.30
2022-12-31T08:31:20.322Z,1.00
2022-12-31T08:34:05.596Z,0.90
2022-12-31T08:36:46.633Z,0.70
2022-12-31T08:39:26.608Z,0.40
2022-12-31T08:41:59.368Z,0.70
2022-12-31T08:44:40.587Z,0.40
2022-12-31T08:47:27.363Z,0.20
2022-12-31T08:49:59.164Z,0.20
2022-12-31T08:52:31.321Z,0.10
2022-12-31T08:55:05.382Z,0.40
2022-12-31T08:57:42.079Z,0.20
2022-12-31T09:00:16.851Z,0.40
2022-12-31T09:02:59.540Z,0.80
2022-12-31T09:05:40.211Z,1.00
2022-12-31T09:08:21.050Z,2.10
2022-12-31T09:10:59.776Z,0.50
2022-12-31T09:13:54.797Z,1.40
2022-12-31T09:16:33.724Z,0.70
2022-12-31T09:19:04.600Z,0.70
2022-12-31T09:21:35.889Z,1.80
2022-12-31T09:24:09.634Z,1.80
2022-12-31T09:26:52.719Z,1.40
2022-12-31T09:29:37.917Z,1.00
2022-12-31T09:32:19.279Z,0.60
2022-12-31T09:34:58.520Z,1.10
2022-12-31T09:37:45.188Z,0.70
2022-12-31T09:40:49.252Z,3.00
2022-12-31T09:44:05.909Z,0.40
2022-12-31T09:47:18.855Z,0.60
2022-12-31T09:50:27.660Z,0.60
2022-12-31T09:55:44.004Z,1.40
2022-12-31T09:58:27.476Z,0.50
2022-12-31T10:01:05.045Z,0.50
2022-12-31T10:03:53.191Z,0.60
2022-12-31T10:06:28.703Z,1.00
2022-12-31T10:09:27.164Z,1.00
2022-12-31T10:12:34.282Z,0.90
2022-12-31T10:15:19.943Z,0.70
2022-12-31T10:18:03.588Z,1.20
2022-12-31T10:20:48.469Z,0.80
2022-12-31T10:23:43.582Z,0.70
2022-12-31T10:26:37.858Z,3.80
2022-12-31T10:29:20.536Z,0.40
2022-12-31T10:32:06.462Z,0.90
2022-12-31T10:34:54.110Z,0.60
2022-12-31T10:37:29.961Z,0.60
2022-12-31T10:40:13.707Z,0.70
2022-12-31T10:43:11.429Z,1.00
2022-12-31T10:46:09.016Z,2.00
2022-12-31T10:49:11.418Z,0.70
2022-12-31T10:52:18.825Z,0.80
2022-12-31T10:55:08.865Z,1.80
2022-12-31T10:58:21.097Z,2.80
2022-12-31T11:01:01.129Z,3.00
2022-12-31T11:04:15.044Z,1.00
2022-12-31T11:07:15.241Z,1.10
2022-12-31T11:10:21.144Z,1.20
2022-12-31T11:13:33.179Z,2.70
2022-12-31T11:16:16.300Z,0.90
2022-12-31T11:18:59.125Z,0.90
2022-12-31T11:21:42.053Z,1.90
2022-12-31T11:24:25.882Z,1.20
2022-12-31T11:27:15.258Z,0.70
2022-12-31T11:30:18.251Z,1.50
2022-12-31T11:33:03.852Z,0.70
2022-12-31T11:35:44.075Z,1.40
2022-12-31T11:38:24.115Z,2.80
2022-12-31T11:41:06.678Z,1.10
2022-12-31T11:43:45.127Z,0.90
2022-12-31T11:46:51.578Z,0.90
2022-12-31T11:49:36.599Z,2.50
2022-12-31T11:52:49.626Z,1.80
2022-12-31T11:55:38.849Z,4.60
2022-12-31T11:58:16.498Z,1.50
2022-12-31T12:00:56.356Z,0.70
2022-12-31T12:03:27.771Z,1.30
2022-12-31T12:06:00.435Z,1.60
2022-12-31T12:08:33.708Z,1.40
2022-12-31T12:11:09.324Z,1.50
2022-12-31T12:13:40.080Z,0.70
2022-12-31T12:16:11.220Z,0.50
2022-12-31T12:18:45.925Z,0.90
2022-12-31T12:21:18.783Z,0.90
2022-12-31T12:24:00.517Z,0.40
2022-12-31T12:26:37.165Z,0.40
2022-12-31T12:29:19.571Z,0.90
2022-12-31T12:32:00.195Z,0.80
2022-12-31T12:34:32.774Z,1.00
2022-12-31T12:37:03.749Z,0.70
2022-12-31T12:39:35.810Z,0.80
2022-12-31T12:42:08.964Z,0.80
2022-12-31T12:44:40.314Z,0.80
2022-12-31T12:47:16.442Z,0.40
2022-12-31T12:49:49.768Z,0.70
2022-12-31T12:52:45.402Z,0.80
2022-12-31T12:55:21.187Z,1.60
2022-12-31T12:58:02.343Z,1.20
2022-12-31T13:00:39.238Z,1.00
2022-12-31T13:03:30.631Z,2.10
2022-12-31T13:06:26.459Z,2.20
2022-12-31T13:09:16.422Z,0.70
2022-12-31T13:12:05.441Z,1.40
2022-12-31T13:14:45.470Z,0.30
2022-12-31T13:17:35.248Z,0.80
2022-12-31T13:20:15.290Z,0.70
2022-12-31T13:22:51.075Z,0.60
2022-12-31T13:25:30.837Z,0.70
2022-12-31T13:28:06.270Z,1.30
2022-12-31T13:30:41.339Z,0.80
2022-12-31T13:33:18.432Z,1.30
2022-12-31T13:35:53.432Z,0.50
2022-12-31T13:38:28.716Z,0.90
2022-12-31T13:41:05.129Z,1.20
2022-12-31T13:43:47.318Z,0.90
2022-12-31T13:46:37.119Z,1.90
2022-12-31T13:49:17.016Z,3.10
2022-12-31T13:51:53.860Z,0.80
2022-12-31T13:54:33.249Z,3.00
2022-12-31T13:57:10.292Z,0.50
2022-12-31T13:59:43.677Z,1.10
2022-12-31T14:02:33.736Z,1.20
2022-12-31T14:05:14.065Z,0.60
2022-12-31T14:07:48.836Z,1.30
2022-12-31T14:10:29.317Z,1.20
2022-12-31T14:13:12.131Z,1.00
2022-12-31T14:15:53.418Z,2.40
2022-12-31T14:18:29.688Z,3.40
2022-12-31T14:21:08.554Z,1.50
2022-12-31T14:23:47.742Z,1.60
2022-12-31T14:26:27.567Z,2.60
2022-12-31T14:29:08.369Z,1.10
2022-12-31T14:32:21.803Z,2.60
2022-12-31T14:35:02.231Z,1.70
2022-12-31T14:37:43.342Z,1.00
2022-12-31T14:40:24.766Z,2.30
2022-12-31T14:43:11.333Z,0.60
2022-12-31T14:45:54.968Z,0.70
2022-12-31T14:48:38.724Z,0.80
2022-12-31T14:51:10.354Z,1.00
2022-12-31T14:53:41.196Z,5.30
2022-12-31T14:56:31.037Z,2.00
2022-12-31T14:59:03.774Z,1.00
2022-12-31T15:01:45.598Z,2.30
2022-12-31T15:04:17.948Z,1.00
2022-12-31T15:06:59.368Z,1.20
2022-12-31T15:09:51.325Z,1.20
2022-12-31T15:12:40.284Z,1.10
2022-12-31T15:15:34.810Z,6.70
2022-12-31T15:18:24.451Z,2.30
2022-12-31T15:21:14.852Z,7.30
2022-12-31T15:26:26.092Z,15.00
2022-12-31T15:29:06.157Z,3.60
2022-12-31T15:31:37.842Z,2.10
2022-12-31T15:34:25.553Z,3.00
2022-12-31T15:36:58.901Z,3.50
2022-12-31T15:39:41.678Z,89.00
2022-12-31T15:42:47.267Z,10.10
2022-12-31T15:45:27.311Z,7.20
2022-12-31T15:48:03.119Z,13.90
2022-12-31T15:50:37.800Z,9.50
2022-12-31T15:53:09.726Z,26.20
2022-12-31T15:55:45.337Z,15.40
2022-12-31T15:58:20.464Z,7.90
2022-12-31T16:01:00.907Z,10.80
2022-12-31T16:03:33.261Z,42.20
2022-12-31T16:06:09.258Z,16.50
2022-12-31T16:08:41.592Z,20.90
2022-12-31T16:11:12.919Z,13.20
2022-12-31T16:13:46.743Z,81.40
2022-12-31T16:16:25.734Z,23.20
2022-12-31T16:18:57.697Z,13.50
2022-12-31T16:21:34.113Z,17.60
2022-12-31T16:24:08.076Z,14.60
2022-12-31T16:26:45.472Z,30.20
2022-12-31T16:29:20.909Z,13.70
2022-12-31T16:31:53.988Z,22.90
2022-12-31T16:34:26.978Z,29.10
2022-12-31T16:37:04.465Z,17.10
2022-12-31T16:39:37.131Z,12.10
2022-12-31T16:42:20.938Z,10.40
2022-12-31T16:44:55.477Z,26.50
2022-12-31T16:47:33.457Z,28.70
2022-12-31T16:50:07.851Z,24.60
2022-12-31T16:52:42.013Z,35.30
2022-12-31T16:55:19.039Z,33.90
2022-12-31T16:57:55.459Z,46.50
2022-12-31T17:00:27.376Z,31.60
2022-12-31T17:03:08.883Z,31.00
2022-12-31T17:05:58.876Z,25.60
2022-12-31T17:08:40.094Z,14.30
2022-12-31T17:11:28.692Z,12.60
2022-12-31T17:14:08.376Z,10.50
2022-12-31T17:16:43.865Z,13.60
2022-12-31T17:19:40.227Z,8.60
2022-12-31T17:22:19.983Z,7.60
2022-12-31T17:24:53.920Z,104.50
2022-12-31T17:27:24.603Z,61.10
2022-12-31T17:29:55.375Z,20.60
2022-12-31T17:32:36.823Z,15.30
2022-12-31T17:35:30.117Z,10.60
2022-12-31T17:38:30.821Z,14.70
2022-12-31T17:41:17.315Z,6.70
2022-12-31T17:43:52.097Z,46.50
2022-12-31T17:46:23.734Z,101.00
2022-12-31T17:48:57.343Z,58.00
2022-12-31T17:51:28.237Z,26.40
2022-12-31T17:54:00.293Z,16.90
2022-12-31T17:56:31.056Z,17.00
2022-12-31T17:59:05.428Z,12.70
2022-12-31T18:01:36.615Z,11.30
2022-12-31T18:04:10.977Z,12.30
2022-12-31T18:06:42.107Z,15.20
2022-12-31T18:09:13.552Z,13.50
2022-12-31T18:11:44.963Z,26.40
2022-12-31T18:14:17.454Z,20.40
2022-12-31T18:19:45.876Z,10.00
2022-12-31T18:22:11.103Z,20.90
2022-12-31T18:24:41.939Z,14.80
2022-12-31T18:27:18.310Z,9.20
2022-12-31T18:29:49.192Z,14.30
2022-12-31T18:32:27.100Z,12.00
2022-12-31T18:34:57.831Z,5.30
2022-12-31T18:37:30.946Z,19.70
2022-12-31T18:40:01.569Z,18.70
2022-12-31T18:42:32.327Z,14.00
2022-12-31T18:45:03.415Z,9.90
2022-12-31T18:47:37.683Z,11.70
2022-12-31T18:50:11.228Z,8.20
2022-12-31T18:52:42.293Z,10.40
2022-12-31T18:55:25.780Z,7.50
2022-12-31T18:57:56.440Z,10.70
2022-12-31T19:00:27.168Z,10.10
2022-12-31T19:02:57.983Z,9.80
2022-12-31T19:05:31.075Z,8.60
2022-12-31T19:08:02.309Z,7.70
2022-12-31T19:10:33.632Z,6.90
2022-12-31T19:13:04.494Z,11.10
2022-12-31T19:15:42.517Z,5.50
2022-12-31T19:18:13.345Z,11.00
2022-12-31T19:20:44.257Z,8.50
2022-12-31T19:23:20.357Z,8.80
2022-12-31T19:25:51.949Z,8.60
2022-12-31T19:28:25.908Z,12.50
2022-12-31T19:30:56.711Z,7.50
2022-12-31T19:33:27.355Z,7.20
2022-12-31T19:35:58.000Z,6.30
2022-12-31T19:38:32.151Z,8.80
2022-12-31T19:41:04.013Z,6.80
2022-12-31T19:43:34.766Z,8.80
2022-12-31T19:46:06.564Z,12.20
2022-12-31T19:48:37.349Z,21.00
2022-12-31T19:51:11.856Z,15.50
2022-12-31T19:53:42.496Z,18.40
2022-12-31T19:56:16.913Z,20.00
2022-12-31T19:58:47.866Z,31.70
2022-12-31T20:01:23.365Z,20.80
2022-12-31T20:03:56.353Z,20.40
2022-12-31T20:06:27.009Z,26.60
2022-12-31T20:08:57.766Z,15.50
2022-12-31T20:11:28.963Z,17.90
2022-12-31T20:13:59.966Z,20.90
2022-12-31T20:16:31.850Z,14.30
2022-12-31T20:19:02.678Z,18.20
2022-12-31T20:21:33.264Z,15.60
2022-12-31T20:24:03.939Z,21.60
2022-12-31T20:26:34.528Z,20.40
2022-12-31T20:29:05.175Z,17.70
2022-12-31T20:31:35.886Z,36.20
2022-12-31T20:34:06.514Z,22.40
2022-12-31T20:36:37.804Z,24.60
2022-12-31T20:39:08.992Z,21.90
2022-12-31T20:41:39.684Z,15.80
2022-12-31T20:44:10.413Z,10.30
2022-12-31T20:46:42.077Z,11.10
2022-12-31T20:49:26.872Z,7.60
2022-12-31T20:52:08.267Z,5.90
2022-12-31T20:54:39.220Z,5.80
2022-12-31T20:57:09.943Z,5.30
2022-12-31T20:59:40.609Z,4.80
2022-12-31T21:02:22.885Z,3.70
2022-12-31T21:04:57.243Z,4.70
2022-12-31T21:07:28.005Z,2.10
2022-12-31T21:09:58.608Z,1.90
2022-12-31T21:12:45.506Z,2.90
2022-12-31T21:15:16.440Z,3.50
2022-12-31T21:17:47.262Z,5.80
2022-12-31T21:20:18.033Z,2.60
2022-12-31T21:22:48.762Z,2.20
2022-12-31T21:25:19.471Z,2.90
2022-12-31T21:27:50.046Z,3.20
2022-12-31T21:30:21.075Z,3.20
2022-12-31T21:32:51.874Z,2.90
2022-12-31T21:38:13.272Z,4.20
2022-12-31T21:40:45.071Z,5.10
2022-12-31T21:43:16.439Z,4.70
2022-12-31T21:45:47.362Z,2.60
2022-12-31T21:48:21.976Z,3.90
2022-12-31T21:50:54.914Z,3.30
2022-12-31T21:53:34.162Z,3.00
2022-12-31T21:56:10.101Z,2.30
2022-12-31T21:58:42.268Z,1.90
2022-12-31T22:01:36.635Z,3.00
2022-12-31T22:04:28.174Z,7.30
2022-12-31T22:06:58.826Z,3.70
2022-12-31T22:09:29.724Z,3.50
2022-12-31T22:12:00.702Z,3.10
2022-12-31T22:14:31.479Z,5.10
2022-12-31T22:17:02.098Z,4.90
2022-12-31T22:19:43.482Z,4.00
2022-12-31T22:22:23.345Z,3.20
2022-12-31T22:24:54.106Z,6.70
2022-12-31T22:27:28.323Z,4.60
2022-12-31T22:30:00.826Z,3.30
2022-12-31T22:32:31.518Z,2.70
2022-12-31T22:35:02.123Z,2.50
2022-12-31T22:37:56.476Z,1.90
2022-12-31T22:40:23.448Z,3.90
2022-12-31T22:42:54.056Z,2.10
2022-12-31T22:45:24.760Z,3.20
2022-12-31T22:47:55.836Z,3.00
2022-12-31T22:50:26.421Z,1.80
2022-12-31T22:52:57.037Z,3.10
2022-12-31T22:55:28.491Z,5.80
2022-12-31T22:57:59.170Z,5.90
2022-12-31T23:00:41.165Z,4.70
2022-12-31T23:03:11.783Z,5.80
2022-12-31T23:05:42.925Z,15.20
2022-12-31T23:08:22.335Z,21.40
2022-12-31T23:11:03.709Z,27.80
2022-12-31T23:13:57.529Z,32.50
2022-12-31T23:16:48.376Z,40.50
2022-12-31T23:19:36.371Z,37.90
2022-12-31T23:22:24.642Z,42.00
2022-12-31T23:24:55.264Z,40.80
2022-12-31T23:27:26.313Z,43.90
2022-12-31T23:29:57.600Z,53.60
2022-12-31T23:32:28.235Z,73.60
2022-12-31T23:34:58.899Z,49.20
2022-12-31T23:37:29.631Z,34.60
2022-12-31T23:40:00.413Z,42.00
2022-12-31T23:42:31.034Z,33.10
2022-12-31T23:45:01.883Z,25.40
2022-12-31T23:47:32.853Z,29.00
2022-12-31T23:50:03.459Z,30.30
2022-12-31T23:52:33.993Z,16.80
2022-12-31T23:55:05.039Z,25.50
2022-12-31T23:57:35.684Z,18.80
